Time;durP1;ratioP1;P1;durP2;ratioP2;P2;SDS_P1;SDS_P2;PMS_P1;PMS_P2;Temp;Humidity;BMP_temperature;BMP_pressure;BME280_temperature;BME280_humidity;BME280_pressure;Samples;Min_cycle;Max_cycle;Signal;HPM_P1;HPM_P2
2022/12/11 00:01:25;;;;;;;19.98;9.73;;;-1.40;99.90;;;;;;5024903;28;20055;-78
2022/12/11 00:03:52;;;;;;;17.95;9.77;;;-1.30;99.90;;;;;;5015787;28;20037;-78
2022/12/11 00:06:21;;;;;;;18.52;9.63;;;-1.40;99.90;;;;;;5051578;28;20060;-79
2022/12/11 00:08:50;;;;;;;19.65;9.25;;;-1.40;99.90;;;;;;5034058;28;20075;-78
2022/12/11 00:11:16;;;;;;;19.98;10.00;;;-1.40;99.90;;;;;;5003155;28;20034;-78
2022/12/11 00:13:42;;;;;;;17.58;8.85;;;-1.40;99.90;;;;;;5031373;28;20065;-78
2022/12/11 00:16:08;;;;;;;19.92;9.55;;;-1.40;99.90;;;;;;5026458;28;20124;-78
2022/12/11 00:18:35;;;;;;;18.33;8.80;;;-1.40;99.90;;;;;;5052091;28;20111;-78
2022/12/11 00:21:05;;;;;;;16.88;9.32;;;-1.50;99.90;;;;;;5046124;28;20029;-78
2022/12/11 00:23:33;;;;;;;17.40;9.18;;;-1.40;99.90;;;;;;5000205;28;20070;-78
2022/12/11 00:25:59;;;;;;;17.60;9.07;;;-1.50;99.90;;;;;;5016703;28;20071;-78
2022/12/11 00:28:25;;;;;;;16.17;8.75;;;-1.50;99.90;;;;;;4999855;28;20052;-78
2022/12/11 00:30:50;;;;;;;15.50;8.48;;;-1.50;99.90;;;;;;5017441;28;20040;-79
2022/12/11 00:33:16;;;;;;;19.25;9.15;;;-1.50;99.90;;;;;;5016181;28;20021;-78
2022/12/11 00:35:44;;;;;;;17.50;9.07;;;-1.50;99.90;;;;;;5017342;28;20495;-78
2022/12/11 00:38:15;;;;;;;16.48;8.13;;;-1.50;99.90;;;;;;5046106;28;20032;-78
2022/12/11 00:40:42;;;;;;;18.55;8.88;;;-1.50;99.90;;;;;;5049869;28;20033;-78
2022/12/11 00:43:07;;;;;;;16.45;8.48;;;-1.50;99.90;;;;;;5045784;28;20586;-79
2022/12/11 00:45:41;;;;;;;17.83;8.93;;;-1.60;99.90;;;;;;5032670;28;20040;-78
2022/12/11 00:48:08;;;;;;;18.20;8.88;;;-1.60;99.90;;;;;;5013173;28;20041;-78
2022/12/11 00:50:34;;;;;;;20.17;9.73;;;-1.60;99.90;;;;;;5042865;28;20037;-79
2022/12/11 00:53:00;;;;;;;15.38;8.77;;;-1.60;99.90;;;;;;5049015;28;20048;-78
2022/12/11 00:55:28;;;;;;;17.15;8.65;;;-1.60;99.90;;;;;;5015741;28;20121;-78
2022/12/11 00:57:54;;;;;;;19.92;8.35;;;-1.60;99.90;;;;;;5023637;28;20033;-78
2022/12/11 01:00:21;;;;;;;16.75;8.90;;;-1.60;99.90;;;;;;5049762;28;20386;-78
2022/12/11 01:02:48;;;;;;;18.20;8.85;;;-1.60;99.90;;;;;;5053175;28;20440;-78
2022/12/11 01:05:14;;;;;;;14.23;8.38;;;-1.70;99.90;;;;;;5011858;28;20599;-78
2022/12/11 01:07:40;;;;;;;19.88;10.00;;;-1.70;99.90;;;;;;5033284;28;20040;-78
2022/12/11 01:10:24;;;;;;;17.27;9.25;;;-1.70;99.90;;;;;;5044621;28;20566;-79
2022/12/11 01:12:54;;;;;;;19.90;9.57;;;-1.70;99.90;;;;;;5012263;28;20564;-78
2022/12/11 01:15:25;;;;;;;14.80;8.18;;;-1.70;99.90;;;;;;5018410;28;20064;-78
2022/12/11 01:17:51;;;;;;;16.02;8.82;;;-1.70;99.90;;;;;;5050414;28;20024;-78
2022/12/11 01:20:18;;;;;;;16.52;9.25;;;-1.70;99.90;;;;;;5048584;28;20029;-78
2022/12/11 01:22:44;;;;;;;19.05;8.48;;;-1.80;99.90;;;;;;5031825;28;20128;-78
2022/12/11 01:25:10;;;;;;;17.65;9.18;;;-1.80;99.90;;;;;;5011936;28;20108;-78
2022/12/11 01:27:37;;;;;;;17.17;8.88;;;-1.80;99.90;;;;;;5025908;28;20075;-78
2022/12/11 01:30:04;;;;;;;15.13;8.57;;;-1.80;99.90;;;;;;5028410;28;20038;-78
2022/12/11 01:32:31;;;;;;;17.73;9.25;;;-1.90;99.90;;;;;;5030406;28;20029;-79
2022/12/11 01:34:57;;;;;;;17.15;9.10;;;-2.00;99.90;;;;;;5031548;28;20033;-78
2022/12/11 01:37:23;;;;;;;14.98;8.23;;;-2.00;99.90;;;;;;5018129;28;20247;-78
2022/12/11 01:39:49;;;;;;;19.00;10.88;;;-2.00;99.90;;;;;;5009919;28;20044;-79
2022/12/11 01:42:19;;;;;;;19.55;11.60;;;-2.10;99.90;;;;;;5014737;28;20025;-78
2022/12/11 01:44:45;;;;;;;21.08;10.63;;;-2.00;99.90;;;;;;5029228;28;20041;-78
2022/12/11 01:47:11;;;;;;;17.48;9.63;;;-2.10;99.90;;;;;;5046293;28;20031;-78
2022/12/11 01:49:39;;;;;;;15.52;8.93;;;-2.10;99.90;;;;;;5049309;28;20036;-78
2022/12/11 01:52:18;;;;;;;26.60;14.43;;;-2.10;99.90;;;;;;5014055;28;20040;-78
2022/12/11 01:54:45;;;;;;;22.58;12.55;;;-2.10;99.90;;;;;;5041046;28;20087;-78
2022/12/11 01:57:12;;;;;;;19.25;9.65;;;-2.00;99.90;;;;;;5016272;28;20155;-79
2022/12/11 01:59:42;;;;;;;18.15;10.20;;;-2.00;99.90;;;;;;5044482;28;20400;-78
2022/12/11 02:02:28;;;;;;;41.97;23.30;;;-2.10;99.90;;;;;;5027564;28;20021;-78
2022/12/11 02:04:53;;;;;;;39.30;22.60;;;-2.00;99.90;;;;;;5027392;28;20075;-78
2022/12/11 02:07:20;;;;;;;33.28;18.63;;;-2.00;99.90;;;;;;5043523;28;20033;-79
2022/12/11 02:09:47;;;;;;;33.03;19.98;;;-2.00;99.90;;;;;;5047292;28;20037;-78
2022/12/11 02:12:45;;;;;;;29.35;16.33;;;-2.00;99.90;;;;;;5037673;28;20037;-78
2022/12/11 02:15:34;;;;;;;22.33;12.57;;;-2.00;99.90;;;;;;5027246;28;20044;-78
2022/12/11 02:18:03;;;;;;;21.98;12.07;;;-2.00;99.90;;;;;;4995537;28;20456;-78
2022/12/11 02:20:38;;;;;;;22.63;11.40;;;-2.00;99.90;;;;;;5048515;28;20025;-78
2022/12/11 02:23:25;;;;;;;21.33;10.50;;;-2.00;99.90;;;;;;5047441;28;20064;-78
2022/12/11 02:26:03;;;;;;;20.67;9.70;;;-2.00;99.90;;;;;;5038382;28;20111;-78
2022/12/11 02:28:50;;;;;;;20.45;10.95;;;-2.00;99.90;;;;;;5047822;28;20037;-78
2022/12/11 02:31:40;;;;;;;18.90;9.75;;;-2.00;99.90;;;;;;5048619;28;20029;-78
2022/12/11 02:34:15;;;;;;;22.00;11.07;;;-2.00;99.90;;;;;;4997758;28;20091;-78
2022/12/11 02:36:47;;;;;;;19.67;10.02;;;-2.00;99.90;;;;;;5030150;28;20025;-78
2022/12/11 02:39:15;;;;;;;17.85;9.55;;;-2.00;99.90;;;;;;5014668;28;20039;-78
2022/12/11 02:41:45;;;;;;;21.77;11.18;;;-2.00;99.90;;;;;;5023268;28;20029;-79
2022/12/11 02:44:14;;;;;;;17.52;9.10;;;-2.00;99.90;;;;;;5021666;28;20041;-78
2022/12/11 02:46:41;;;;;;;18.10;9.43;;;-2.00;99.90;;;;;;5032522;28;20385;-78
2022/12/11 02:49:10;;;;;;;18.65;9.30;;;-2.00;99.90;;;;;;5046000;28;20389;-78
2022/12/11 02:51:39;;;;;;;18.08;10.00;;;-2.00;99.90;;;;;;5013692;28;20452;-78
2022/12/11 02:54:09;;;;;;;17.52;9.23;;;-2.00;99.90;;;;;;5048337;28;20037;-78
2022/12/11 02:56:42;;;;;;;18.38;10.00;;;-2.00;99.90;;;;;;5048783;28;20035;-78
2022/12/11 02:59:19;;;;;;;20.17;10.10;;;-2.00;99.90;;;;;;5046383;28;20032;-79
2022/12/11 03:01:46;;;;;;;20.25;10.25;;;-1.90;99.90;;;;;;5030306;28;20078;-78
2022/12/11 03:04:11;;;;;;;22.00;10.50;;;-1.90;99.90;;;;;;5033674;28;20025;-78
2022/12/11 03:06:43;;;;;;;19.83;9.73;;;-1.90;99.90;;;;;;5031210;28;20037;-78
2022/12/11 03:09:09;;;;;;;21.17;10.15;;;-1.90;99.90;;;;;;5032536;28;20405;-78
2022/12/11 03:11:35;;;;;;;20.30;10.20;;;-1.90;99.90;;;;;;5039003;28;20182;-78
2022/12/11 03:14:01;;;;;;;20.85;10.38;;;-1.90;99.90;;;;;;5047124;28;20128;-78
2022/12/11 03:16:37;;;;;;;19.77;10.38;;;-1.90;99.90;;;;;;5048611;28;20754;-78
2022/12/11 03:19:06;;;;;;;20.92;10.55;;;-1.90;99.90;;;;;;5047372;28;20044;-78
2022/12/11 03:21:34;;;;;;;20.00;10.52;;;-1.90;99.90;;;;;;5046617;28;20071;-78
2022/12/11 03:24:05;;;;;;;20.50;10.63;;;-1.90;99.90;;;;;;5011004;28;20036;-78
2022/12/11 03:26:38;;;;;;;20.10;9.90;;;-1.90;99.90;;;;;;5039714;28;20116;-78
2022/12/11 03:29:18;;;;;;;20.05;10.60;;;-2.00;99.90;;;;;;5030545;28;20044;-78
2022/12/11 03:31:55;;;;;;;20.00;10.50;;;-2.00;99.90;;;;;;5027423;28;20082;-78
2022/12/11 03:34:31;;;;;;;21.40;10.80;;;-2.00;99.90;;;;;;5052271;28;20033;-78
2022/12/11 03:37:00;;;;;;;18.98;9.85;;;-2.00;99.90;;;;;;5041535;28;20037;-78
2022/12/11 03:39:35;;;;;;;20.25;9.90;;;-2.00;99.90;;;;;;5024681;28;20044;-78
2022/12/11 03:42:01;;;;;;;;;;;-2.00;99.90;;;;;;5047500;28;20527;-78
2022/12/11 03:44:30;;;;;;;19.17;10.00;;;-2.00;99.90;;;;;;5052249;28;20423;-78
2022/12/11 03:46:59;;;;;;;18.73;9.80;;;-2.10;99.90;;;;;;5045856;28;20040;-78
2022/12/11 03:49:28;;;;;;;18.80;10.10;;;-2.10;99.90;;;;;;5043414;28;20037;-78
2022/12/11 03:51:58;;;;;;;20.45;9.70;;;-2.10;99.90;;;;;;5040163;28;20032;-78
2022/12/11 03:54:24;;;;;;;18.35;9.75;;;-2.10;99.90;;;;;;5051727;28;20041;-78
2022/12/11 03:56:54;;;;;;;18.70;10.32;;;-2.10;99.90;;;;;;5022825;28;20116;-78
2022/12/11 03:59:20;;;;;;;21.70;11.55;;;-2.10;99.90;;;;;;5054717;28;20389;-79
2022/12/11 04:01:45;;;;;;;19.23;10.40;;;-2.10;99.90;;;;;;4996822;28;20026;-78
2022/12/11 04:04:11;;;;;;;21.35;10.60;;;-2.10;99.90;;;;;;5031426;28;20112;-78
2022/12/11 04:06:37;;;;;;;24.00;11.05;;;-2.10;99.90;;;;;;5050688;28;20032;-78
2022/12/11 04:09:03;;;;;;;19.48;10.23;;;-2.10;99.90;;;;;;5050577;28;20037;-78
2022/12/11 04:11:34;;;;;;;20.25;10.40;;;-2.10;99.90;;;;;;5033022;28;20061;-78
2022/12/11 04:16:47;;;;;;;24.92;11.88;;;-2.10;99.90;;;;;;5043375;28;20033;-78
2022/12/11 04:24:39;;;;;;;22.23;10.52;;;-2.10;99.90;;;;;;5041783;28;20424;-78
2022/12/11 04:27:05;;;;;;;21.60;10.43;;;-2.00;99.90;;;;;;5045559;28;20037;-78
2022/12/11 04:29:31;;;;;;;22.38;10.88;;;-2.10;99.90;;;;;;5049106;28;20120;-78
2022/12/11 04:31:57;;;;;;;20.75;10.95;;;-2.00;99.90;;;;;;5033099;28;20123;-78
2022/12/11 04:34:23;;;;;;;21.40;11.40;;;-2.00;99.90;;;;;;5015556;28;20485;-79
2022/12/11 04:36:49;;;;;;;18.65;9.90;;;-1.90;99.90;;;;;;5018752;28;20036;-79
2022/12/11 04:39:15;;;;;;;21.60;11.35;;;-2.00;99.90;;;;;;5052687;28;20528;-79
2022/12/11 04:41:41;;;;;;;21.92;10.40;;;-2.10;99.90;;;;;;5016582;28;20033;-79
2022/12/11 04:44:07;;;;;;;21.02;10.05;;;-2.10;99.90;;;;;;5014778;28;20037;-79
2022/12/11 04:46:33;;;;;;;23.05;10.85;;;-2.00;99.90;;;;;;5017195;28;20044;-80
2022/12/11 04:48:59;;;;;;;20.65;10.73;;;-2.10;99.90;;;;;;5029760;28;20108;-79
2022/12/11 04:51:27;;;;;;;20.70;10.52;;;-2.10;99.90;;;;;;5036022;28;20513;-79
2022/12/11 04:53:53;;;;;;;19.83;10.15;;;-2.00;99.90;;;;;;5050556;28;20111;-79
2022/12/11 04:56:19;;;;;;;18.60;10.38;;;-2.10;99.90;;;;;;5027807;28;20040;-79
2022/12/11 04:58:46;;;;;;;21.58;10.85;;;-2.10;99.90;;;;;;5053123;28;20037;-79
2022/12/11 05:01:18;;;;;;;19.50;10.85;;;-2.10;99.90;;;;;;5039498;28;20513;-78
2022/12/11 05:03:44;;;;;;;21.05;10.70;;;-2.10;99.90;;;;;;5001000;28;20033;-79
2022/12/11 05:06:10;;;;;;;20.85;10.13;;;-2.10;99.90;;;;;;5037306;28;20121;-79
2022/12/11 05:08:39;;;;;;;20.02;11.02;;;-2.10;99.90;;;;;;5014372;28;20037;-79
2022/12/11 05:11:08;;;;;;;22.92;11.15;;;-2.10;99.90;;;;;;5031278;28;20033;-79
2022/12/11 05:13:34;;;;;;;19.13;9.77;;;-2.10;99.90;;;;;;5032308;28;20045;-79
2022/12/11 05:16:04;;;;;;;20.15;10.75;;;-2.10;99.90;;;;;;5050023;28;20033;-79
2022/12/11 05:18:29;;;;;;;21.15;11.32;;;-2.00;99.90;;;;;;5033079;28;20074;-79
2022/12/11 05:20:57;;;;;;;22.80;10.95;;;-2.00;99.90;;;;;;5035374;28;20108;-79
2022/12/11 05:23:22;;;;;;;21.08;10.60;;;-2.00;99.90;;;;;;5016154;28;20508;-79
2022/12/11 05:26:00;;;;;;;21.17;10.52;;;-2.00;99.90;;;;;;5042898;28;20099;-79
2022/12/11 05:28:29;;;;;;;22.17;11.55;;;-2.00;99.90;;;;;;5013137;28;20039;-79
2022/12/11 05:30:57;;;;;;;20.88;10.40;;;-2.00;99.90;;;;;;5045143;28;20065;-79
2022/12/11 05:33:23;;;;;;;21.08;10.43;;;-2.00;99.90;;;;;;5048694;28;20112;-79
2022/12/11 05:35:49;;;;;;;23.52;11.45;;;-1.90;99.90;;;;;;5014907;28;20029;-79
2022/12/11 05:38:15;;;;;;;19.33;9.95;;;-2.00;99.90;;;;;;5032903;28;20087;-79
2022/12/11 05:40:41;;;;;;;20.25;10.23;;;-1.90;99.90;;;;;;5016175;28;20124;-79
2022/12/11 05:43:07;;;;;;;21.90;11.13;;;-1.90;99.90;;;;;;5032179;28;20033;-79
2022/12/11 05:45:33;;;;;;;23.08;11.57;;;-1.90;99.90;;;;;;5031696;28;20039;-79
2022/12/11 05:47:59;;;;;;;23.70;11.60;;;-2.00;99.90;;;;;;5029190;28;20106;-79
2022/12/11 05:50:25;;;;;;;21.70;10.88;;;-1.90;99.90;;;;;;5030715;28;20593;-79
2022/12/11 05:52:51;;;;;;;22.33;10.98;;;-1.90;99.90;;;;;;5015028;28;20077;-78
2022/12/11 05:55:16;;;;;;;24.60;10.85;;;-1.90;99.90;;;;;;5047640;28;20033;-79
2022/12/11 05:57:42;;;;;;;20.38;10.65;;;-1.90;99.90;;;;;;5031797;28;20029;-79
2022/12/11 06:00:10;;;;;;;22.13;10.98;;;-1.90;99.90;;;;;;5049894;28;20715;-79
2022/12/11 06:02:36;;;;;;;23.75;11.38;;;-1.90;99.90;;;;;;5049406;28;20025;-79
2022/12/11 06:05:02;;;;;;;22.15;10.85;;;-1.90;99.90;;;;;;5004981;28;20040;-79
2022/12/11 06:07:27;;;;;;;22.85;11.10;;;-1.90;99.90;;;;;;5046355;28;20281;-79
2022/12/11 06:09:53;;;;;;;20.77;11.10;;;-1.90;99.90;;;;;;5028367;28;20042;-79
2022/12/11 06:12:19;;;;;;;22.63;11.00;;;-1.90;99.90;;;;;;5047878;28;20481;-78
2022/12/11 06:14:45;;;;;;;18.08;10.07;;;-1.90;99.90;;;;;;5013939;28;20066;-79
2022/12/11 06:17:10;;;;;;;19.85;10.23;;;-1.90;99.90;;;;;;5028629;28;20036;-79
2022/12/11 06:19:36;;;;;;;19.60;10.98;;;-1.90;99.90;;;;;;5012326;28;20088;-79
2022/12/11 06:22:03;;;;;;;20.90;10.60;;;-1.90;99.90;;;;;;5044536;28;20029;-80
2022/12/11 06:24:28;;;;;;;22.17;11.18;;;-1.90;99.90;;;;;;5031584;28;20032;-79
2022/12/11 06:26:54;;;;;;;21.33;11.52;;;-1.90;99.90;;;;;;5042216;28;20037;-79
2022/12/11 06:29:20;;;;;;;21.88;11.38;;;-1.90;99.90;;;;;;4999882;28;20602;-79
2022/12/11 06:31:46;;;;;;;20.30;11.05;;;-1.90;99.90;;;;;;5016031;28;20112;-79
2022/12/11 06:34:12;;;;;;;20.17;10.63;;;-1.90;99.90;;;;;;4999930;28;20028;-79
2022/12/11 06:36:39;;;;;;;19.83;10.52;;;-2.00;99.90;;;;;;5035231;28;20037;-79
2022/12/11 06:39:05;;;;;;;23.95;11.40;;;-1.90;99.90;;;;;;5031306;28;20095;-80
2022/12/11 06:41:30;;;;;;;21.40;10.65;;;-1.90;99.90;;;;;;5049291;28;20040;-79
2022/12/11 06:43:57;;;;;;;22.17;11.32;;;-2.00;99.90;;;;;;5019005;28;20100;-79
2022/12/11 06:46:22;;;;;;;23.92;11.50;;;-1.90;99.90;;;;;;5038248;28;20086;-79
2022/12/11 06:48:49;;;;;;;20.42;10.38;;;-1.90;99.90;;;;;;5049525;28;20128;-79
2022/12/11 06:51:20;;;;;;;23.50;11.63;;;-1.90;99.90;;;;;;5041922;28;20041;-79
2022/12/11 06:53:51;;;;;;;23.70;11.57;;;-1.90;99.90;;;;;;5030553;28;20212;-80
2022/12/11 06:56:18;;;;;;;22.30;11.68;;;-1.90;99.90;;;;;;5044907;28;20034;-79
2022/12/11 06:58:44;;;;;;;21.30;11.35;;;-2.00;99.90;;;;;;5031460;28;20025;-79
2022/12/11 07:01:16;;;;;;;23.52;11.77;;;-2.00;99.90;;;;;;5014751;28;20036;-79
2022/12/11 07:03:42;;;;;;;22.52;10.70;;;-2.00;99.90;;;;;;5042305;28;20033;-79
2022/12/11 07:06:08;;;;;;;22.13;11.18;;;-2.00;99.90;;;;;;5032089;28;20047;-79
2022/12/11 07:08:34;;;;;;;19.98;10.80;;;-2.00;99.90;;;;;;5035298;28;20044;-79
2022/12/11 07:11:04;;;;;;;19.60;10.50;;;-2.00;99.90;;;;;;5029884;28;20032;-79
2022/12/11 07:13:30;;;;;;;20.77;11.13;;;-2.00;99.90;;;;;;5016670;28;20116;-79
2022/12/11 07:15:58;;;;;;;21.52;10.68;;;-2.00;99.90;;;;;;5016817;28;20129;-79
2022/12/11 07:18:23;;;;;;;22.92;11.13;;;-2.00;99.90;;;;;;5025688;28;20440;-79
2022/12/11 07:20:49;;;;;;;22.33;10.70;;;-2.00;99.90;;;;;;5034006;28;20037;-79
2022/12/11 07:23:15;;;;;;;19.77;10.20;;;-2.00;99.90;;;;;;5051599;28;20028;-78
2022/12/11 07:25:41;;;;;;;21.08;10.75;;;-2.00;99.90;;;;;;5018723;28;20087;-79
2022/12/11 07:28:06;;;;;;;18.27;9.55;;;-2.00;99.90;;;;;;5043712;28;20068;-79
2022/12/11 07:30:32;;;;;;;20.50;10.68;;;-2.00;99.90;;;;;;5033954;28;20021;-79
2022/12/11 07:32:58;;;;;;;20.42;10.02;;;-2.00;99.90;;;;;;5034233;28;20111;-79
2022/12/11 07:35:24;;;;;;;19.13;10.02;;;-1.90;99.90;;;;;;5021940;28;20078;-79
2022/12/11 07:37:49;;;;;;;18.70;10.60;;;-1.90;99.90;;;;;;5039049;28;20120;-79
2022/12/11 07:40:15;;;;;;;20.10;9.98;;;-1.90;99.90;;;;;;5015307;28;20057;-78
2022/12/11 07:42:41;;;;;;;21.58;10.00;;;-1.90;99.90;;;;;;5052504;28;20482;-78
2022/12/11 07:45:07;;;;;;;20.33;11.27;;;-1.90;99.90;;;;;;5034328;28;20033;-78
2022/12/11 07:47:33;;;;;;;21.08;10.15;;;-1.90;99.90;;;;;;5052635;28;20037;-78
2022/12/11 07:49:59;;;;;;;19.52;10.35;;;-1.90;99.90;;;;;;5024200;28;20123;-78
2022/12/11 07:52:25;;;;;;;20.92;10.75;;;-1.90;99.90;;;;;;5032601;28;20064;-78
2022/12/11 07:54:51;;;;;;;19.15;10.63;;;-1.80;99.90;;;;;;5031576;28;20041;-78
2022/12/11 07:57:16;;;;;;;21.10;11.15;;;-1.80;99.90;;;;;;5017743;28;20064;-78
2022/12/11 07:59:42;;;;;;;20.23;10.68;;;-1.80;99.90;;;;;;5052091;28;20097;-78
2022/12/11 08:02:10;;;;;;;16.98;9.48;;;-1.70;99.90;;;;;;5012345;28;20056;-78
2022/12/11 08:04:36;;;;;;;24.30;10.63;;;-1.70;99.90;;;;;;5045594;28;20648;-78
2022/12/11 08:07:02;;;;;;;20.30;10.20;;;-1.60;99.90;;;;;;5033699;28;20044;-78
2022/12/11 08:09:28;;;;;;;21.27;10.50;;;-1.60;99.90;;;;;;5056646;28;20039;-78
2022/12/11 08:11:53;;;;;;;19.92;10.00;;;-1.50;99.90;;;;;;5028001;28;20036;-78
2022/12/11 08:14:19;;;;;;;19.48;10.25;;;-1.50;99.90;;;;;;5032499;28;20834;-78
2022/12/11 08:16:46;;;;;;;22.30;10.90;;;-1.50;99.90;;;;;;5051751;28;20505;-78
2022/12/11 08:19:12;;;;;;;18.98;10.88;;;-1.40;99.90;;;;;;5019119;28;20393;-78
2022/12/11 08:21:38;;;;;;;17.55;9.85;;;-1.40;99.90;;;;;;5051549;28;20060;-78
2022/12/11 08:24:08;;;;;;;17.85;9.60;;;-1.40;99.90;;;;;;5037601;28;20120;-78
2022/12/11 08:26:34;;;;;;;21.40;11.00;;;-1.40;99.90;;;;;;5044983;28;20556;-78
2022/12/11 08:29:01;;;;;;;24.20;11.35;;;-1.30;99.90;;;;;;5047822;28;20060;-78
2022/12/11 08:31:27;;;;;;;24.42;11.07;;;-1.30;99.90;;;;;;5052376;28;20407;-78
2022/12/11 08:33:54;;;;;;;21.27;11.65;;;-1.20;99.90;;;;;;5037057;28;20132;-78
2022/12/11 08:36:22;;;;;;;19.77;11.20;;;-1.20;99.90;;;;;;5036617;28;20098;-78
2022/12/11 08:38:49;;;;;;;19.10;10.43;;;-1.20;99.90;;;;;;5036295;28;20167;-78
2022/12/11 08:41:17;;;;;;;22.23;10.80;;;-1.10;99.90;;;;;;5023586;28;20107;-78
2022/12/11 08:43:43;;;;;;;20.08;10.45;;;-1.10;99.90;;;;;;5050365;28;20102;-78
2022/12/11 08:46:11;;;;;;;21.65;11.30;;;-1.10;99.90;;;;;;5035117;28;20056;-78
2022/12/11 08:48:39;;;;;;;21.35;10.93;;;-1.10;99.90;;;;;;5033642;28;20554;-78
2022/12/11 08:51:07;;;;;;;21.92;11.25;;;-1.10;99.90;;;;;;5031594;28;20563;-77
2022/12/11 08:53:33;;;;;;;19.25;10.38;;;-1.10;99.90;;;;;;5016436;28;20141;-78
2022/12/11 08:56:09;;;;;;;18.50;10.20;;;-1.10;99.90;;;;;;5050542;28;20033;-78
2022/12/11 08:58:35;;;;;;;19.73;10.60;;;-1.10;99.90;;;;;;5036460;28;20049;-78
2022/12/11 09:01:10;;;;;;;18.88;10.52;;;-1.00;99.90;;;;;;5033271;28;20583;-78
2022/12/11 09:03:37;;;;;;;18.02;10.05;;;-1.00;99.90;;;;;;5051674;28;20068;-78
2022/12/11 09:06:04;;;;;;;23.33;11.32;;;-1.00;99.90;;;;;;5000229;28;20059;-78
2022/12/11 09:08:31;;;;;;;19.98;10.38;;;-1.00;99.90;;;;;;5016905;28;20090;-78
2022/12/11 09:11:05;;;;;;;19.35;10.70;;;-1.00;99.90;;;;;;5031664;28;20033;-78
2022/12/11 09:13:31;;;;;;;20.85;10.88;;;-1.00;99.90;;;;;;5031740;28;20033;-78
2022/12/11 09:15:57;;;;;;;19.67;11.25;;;-1.00;99.90;;;;;;5034732;28;20064;-78
2022/12/11 09:18:22;;;;;;;22.50;11.32;;;-0.90;99.90;;;;;;5050690;28;20065;-77
2022/12/11 09:20:56;;;;;;;19.90;10.57;;;-0.90;99.90;;;;;;5034340;28;20025;-78
2022/12/11 09:23:22;;;;;;;18.90;9.88;;;-0.90;99.90;;;;;;5050779;28;20033;-79
2022/12/11 09:25:47;;;;;;;16.17;9.13;;;-1.00;99.90;;;;;;5049563;28;20074;-78
2022/12/11 09:28:13;;;;;;;18.35;9.52;;;-0.90;99.90;;;;;;5016990;28;20520;-78
2022/12/11 09:30:39;;;;;;;18.35;9.70;;;-1.00;99.90;;;;;;5031611;28;20111;-78
2022/12/11 09:33:04;;;;;;;19.48;9.75;;;-1.00;99.90;;;;;;5032260;28;20045;-78
2022/12/11 09:35:30;;;;;;;18.52;10.10;;;-0.90;99.90;;;;;;5028823;28;20120;-78
2022/12/11 09:37:56;;;;;;;20.67;10.05;;;-0.90;99.90;;;;;;5049375;28;20033;-78
2022/12/11 09:40:22;;;;;;;18.50;10.23;;;-0.80;99.90;;;;;;5045721;28;20090;-78
2022/12/11 09:43:14;;;;;;;19.27;10.38;;;-0.70;99.90;;;;;;5031383;28;20035;-78
2022/12/11 09:45:40;;;;;;;16.65;8.98;;;-0.60;99.90;;;;;;5032007;28;20036;-79
2022/12/11 09:48:09;;;;;;;17.70;9.55;;;-0.50;99.90;;;;;;5032483;28;20025;-78
2022/12/11 09:50:35;;;;;;;17.95;9.32;;;-0.40;99.90;;;;;;5032143;28;20056;-78
2022/12/11 09:53:14;;;;;;;18.50;9.98;;;-0.30;99.90;;;;;;5029191;28;20471;-79
2022/12/11 09:56:02;;;;;;;16.42;8.63;;;-0.30;99.90;;;;;;5034509;28;20021;-78
2022/12/11 09:58:47;;;;;;;16.70;9.45;;;-0.30;99.90;;;;;;5026522;28;20067;-78
2022/12/11 10:01:39;;;;;;;15.45;8.73;;;-0.20;99.90;;;;;;5020973;28;20370;-77
2022/12/11 10:04:17;;;;;;;15.48;8.95;;;-0.20;99.90;;;;;;5040789;28;20639;-78
2022/12/11 10:07:19;;;;;;;17.58;8.93;;;-0.30;99.90;;;;;;5040206;28;20047;-78
2022/12/11 10:09:57;;;;;;;16.55;8.43;;;-0.30;99.90;;;;;;5031665;28;20113;-78
2022/12/11 10:12:44;;;;;;;16.67;9.02;;;-0.20;99.90;;;;;;5048764;28;20021;-78
2022/12/11 10:15:10;;;;;;;18.83;9.27;;;-0.30;99.90;;;;;;5047389;28;20025;-78
2022/12/11 10:17:38;;;;;;;15.95;8.45;;;-0.30;99.90;;;;;;5041697;28;20051;-78
2022/12/11 10:20:19;;;;;;;14.68;8.00;;;-0.30;99.90;;;;;;5044979;28;20036;-77
2022/12/11 10:22:46;;;;;;;16.08;8.27;;;-0.30;99.90;;;;;;5047975;28;20472;-78
2022/12/11 10:25:21;;;;;;;12.80;7.60;;;-0.20;99.90;;;;;;5016221;28;20028;-78
2022/12/11 10:27:47;;;;;;;16.10;9.18;;;-0.20;99.90;;;;;;5043828;28;20033;-78
2022/12/11 10:30:17;;;;;;;15.75;8.93;;;-0.20;99.90;;;;;;5028410;28;20068;-77
2022/12/11 10:32:53;;;;;;;14.07;7.68;;;-0.20;99.90;;;;;;5051610;28;20635;-79
2022/12/11 10:35:40;;;;;;;14.50;7.97;;;-0.20;99.90;;;;;;5046424;22;20270;-85
2022/12/11 10:38:19;;;;;;;14.23;7.55;;;-0.20;99.90;;;;;;4986533;28;20112;-85
2022/12/11 10:40:55;;;;;;;13.45;7.35;;;-0.30;99.90;;;;;;5009732;28;20041;-85
2022/12/11 10:43:32;;;;;;;11.23;7.30;;;-0.30;99.90;;;;;;4989369;28;20038;-85
2022/12/11 10:45:59;;;;;;;14.38;7.93;;;-0.30;99.90;;;;;;4997506;28;20175;-85
2022/12/11 10:48:25;;;;;;;16.15;8.90;;;-0.30;99.90;;;;;;4992412;28;20041;-85
2022/12/11 10:51:03;;;;;;;12.75;7.57;;;-0.30;99.90;;;;;;4995758;28;20128;-85
2022/12/11 10:53:32;;;;;;;14.70;8.00;;;-0.30;99.90;;;;;;4995745;28;20061;-85
2022/12/11 10:55:59;;;;;;;15.23;8.18;;;-0.30;99.90;;;;;;4990436;28;20133;-84
2022/12/11 10:58:32;;;;;;;15.02;8.43;;;-0.30;99.90;;;;;;4975653;28;20030;-85
2022/12/11 11:01:03;;;;;;;14.45;7.63;;;-0.30;99.90;;;;;;4991497;28;20041;-85
2022/12/11 11:03:31;;;;;;;19.25;9.90;;;-0.30;99.90;;;;;;5010631;28;20041;-85
2022/12/11 11:06:13;;;;;;;14.75;8.68;;;-0.40;99.90;;;;;;4996944;28;20195;-85
2022/12/11 11:08:45;;;;;;;15.27;8.35;;;-0.40;99.90;;;;;;4989581;28;20503;-85
2022/12/11 11:11:32;;;;;;;10.20;6.60;;;-0.50;99.90;;;;;;4993682;28;20044;-85
2022/12/11 11:14:19;;;;;;;15.63;7.93;;;-0.50;99.90;;;;;;4979146;28;20106;-85
2022/12/11 11:16:51;;;;;;;12.40;6.90;;;-0.50;99.90;;;;;;5003638;28;20034;-86
2022/12/11 11:19:32;;;;;;;12.73;6.57;;;-0.60;99.90;;;;;;5027148;28;20030;-85
2022/12/11 11:22:05;;;;;;;10.57;6.15;;;-0.60;99.90;;;;;;4984003;28;20433;-85
2022/12/11 11:24:43;;;;;;;12.45;7.25;;;-0.60;99.90;;;;;;4990558;28;20038;-84
2022/12/11 11:27:41;;;;;;;13.30;7.30;;;-0.70;99.90;;;;;;5004124;28;20026;-85
2022/12/11 11:30:27;;;;;;;12.85;7.03;;;-0.70;99.90;;;;;;4995196;28;20030;-84
2022/12/11 11:33:11;;;;;;;12.73;6.57;;;-0.70;99.90;;;;;;5029259;28;20036;-85
2022/12/11 11:35:37;;;;;;;13.00;7.63;;;-0.70;99.90;;;;;;4992284;28;20136;-84
2022/12/11 11:38:17;;;;;;;14.55;7.63;;;-0.70;99.90;;;;;;5005894;28;20385;-83
2022/12/11 11:40:54;;;;;;;14.57;7.93;;;-0.70;99.90;;;;;;5004909;28;20030;-84
2022/12/11 11:43:35;;;;;;;14.20;8.02;;;-0.80;99.90;;;;;;5009083;28;20496;-83
2022/12/11 11:46:35;;;;;;;14.60;8.10;;;-0.80;99.90;;;;;;4997699;28;20037;-84
2022/12/11 11:49:19;;;;;;;13.43;7.80;;;-0.80;99.90;;;;;;5003153;28;20508;-84
2022/12/11 11:52:18;;;;;;;10.38;6.65;;;-0.80;99.90;;;;;;4983350;28;20095;-85
2022/12/11 11:55:08;;;;;;;13.75;7.63;;;-0.90;99.90;;;;;;5011762;28;20063;-84
2022/12/11 11:57:43;;;;;;;15.32;7.82;;;-0.90;99.90;;;;;;4991559;28;20522;-85
2022/12/11 12:00:15;;;;;;;;;;;-0.90;99.90;;;;;;5004314;28;20044;-85
2022/12/11 12:02:41;;;;;;;17.88;8.82;;;-0.90;99.90;;;;;;5022782;28;19929;-84
2022/12/11 12:05:12;;;;;;;17.42;9.00;;;-0.90;99.90;;;;;;5029261;28;20033;-85
2022/12/11 12:07:54;;;;;;;18.90;9.73;;;-0.90;99.90;;;;;;5024828;28;20037;-85
2022/12/11 12:10:25;;;;;;;19.42;10.18;;;-0.90;99.90;;;;;;4993116;28;20083;-84
2022/12/11 12:13:04;;;;;;;18.83;9.73;;;-0.90;99.90;;;;;;4991881;28;20056;-85
2022/12/11 12:15:48;;;;;;;18.05;9.48;;;-0.90;99.90;;;;;;5012956;28;20036;-84
2022/12/11 12:18:56;;;;;;;20.73;11.15;;;-0.80;99.90;;;;;;5005241;28;20497;-84
2022/12/11 12:21:37;;;;;;;22.25;10.98;;;-0.90;99.90;;;;;;5015267;28;20036;-86
2022/12/11 12:24:16;;;;;;;20.98;10.15;;;-0.90;99.90;;;;;;4968282;28;20065;-85
2022/12/11 12:26:54;;;;;;;21.05;10.70;;;-0.90;99.90;;;;;;5027492;28;20022;-85
2022/12/11 12:29:34;;;;;;;21.27;10.15;;;-0.90;99.90;;;;;;5004895;28;20108;-85
2022/12/11 12:32:12;;;;;;;21.70;11.23;;;-0.90;99.90;;;;;;5010516;28;20518;-85
2022/12/11 12:34:46;;;;;;;20.50;10.30;;;-0.90;99.90;;;;;;5023243;28;20038;-86
2022/12/11 12:37:33;;;;;;;21.30;10.52;;;-1.00;99.90;;;;;;4997105;28;20029;-85
2022/12/11 12:40:31;;;;;;;19.92;10.48;;;-1.00;99.90;;;;;;4997218;28;20041;-85
2022/12/11 12:43:11;;;;;;;21.88;10.35;;;-1.00;99.90;;;;;;5000357;28;20041;-85
2022/12/11 12:45:58;;;;;;;20.15;10.40;;;-1.00;99.90;;;;;;4998468;28;20520;-84
2022/12/11 12:48:26;;;;;;;18.58;9.90;;;-1.10;99.90;;;;;;5017431;28;20456;-85
2022/12/11 12:50:52;;;;;;;19.60;10.27;;;-1.10;99.90;;;;;;5012650;28;20037;-85
2022/12/11 12:53:27;;;;;;;24.95;12.10;;;-1.20;99.90;;;;;;4997395;28;20060;-85
2022/12/11 12:55:53;;;;;;;;;;;-1.20;99.90;;;;;;4994601;28;20419;-85